createdAt,value
2023-04-21T00:01:28.179Z,25.90
2023-04-21T00:04:36.123Z,25.30
2023-04-21T00:07:43.595Z,24.70
2023-04-21T00:10:47.049Z,23.90
2023-04-21T00:13:56.312Z,25.10
2023-04-21T00:17:03.797Z,25.10
2023-04-21T00:20:11.469Z,24.20
2023-04-21T00:23:20.887Z,23.80
2023-04-21T00:26:28.400Z,24.60
2023-04-21T00:29:35.763Z,22.60
2023-04-21T00:32:44.972Z,22.80
2023-04-21T00:35:51.964Z,22.70
2023-04-21T00:38:59.852Z,22.40
2023-04-21T00:42:08.932Z,22.90
2023-04-21T00:45:15.988Z,21.30
2023-04-21T00:48:23.712Z,21.80
2023-04-21T00:51:31.506Z,21.50
2023-04-21T00:54:39.979Z,20.90
2023-04-21T00:57:47.723Z,20.50
2023-04-21T01:00:55.266Z,20.40
2023-04-21T01:04:04.147Z,20.80
2023-04-21T01:07:11.871Z,19.90
2023-04-21T01:10:19.299Z,18.70
2023-04-21T01:13:28.640Z,20.10
2023-04-21T01:16:36.212Z,20.60
2023-04-21T01:19:43.407Z,20.00
2023-04-21T01:22:52.890Z,20.60
2023-04-21T01:26:00.345Z,20.90
2023-04-21T01:29:07.821Z,20.90
2023-04-21T01:32:15.787Z,20.90
2023-04-21T01:35:24.249Z,20.20
2023-04-21T01:38:31.870Z,21.30
2023-04-21T01:41:39.634Z,20.70
2023-04-21T01:44:48.205Z,20.90
2023-04-21T01:47:56.022Z,22.20
2023-04-21T01:51:03.513Z,22.10
2023-04-21T01:54:12.425Z,21.90
2023-04-21T01:57:20.274Z,20.80
2023-04-21T02:00:27.710Z,20.70
2023-04-21T02:03:36.751Z,21.00
2023-04-21T02:06:44.181Z,20.80
2023-04-21T02:09:51.973Z,21.40
2023-04-21T02:12:59.495Z,21.00
2023-04-21T02:16:13.484Z,20.20
2023-04-21T02:19:10.803Z,21.80
2023-04-21T02:22:18.739Z,21.30
2023-04-21T02:25:27.230Z,20.40
2023-04-21T02:28:35.310Z,20.50
2023-04-21T02:31:57.399Z,19.70
2023-04-21T02:34:48.350Z,20.10
2023-04-21T02:37:56.249Z,19.60
2023-04-21T02:41:03.846Z,20.70
2023-04-21T02:44:12.979Z,19.60
2023-04-21T02:47:20.698Z,19.30
2023-04-21T02:50:27.930Z,18.40
2023-04-21T02:53:36.736Z,19.70
2023-04-21T02:56:44.470Z,21.60
2023-04-21T02:59:51.901Z,21.30
2023-04-21T03:02:59.492Z,20.90
2023-04-21T03:06:08.696Z,19.10
2023-04-21T03:09:16.232Z,19.50
2023-04-21T03:12:23.845Z,19.00
2023-04-21T03:15:32.566Z,18.60
2023-04-21T03:18:40.147Z,19.10
2023-04-21T03:21:47.531Z,20.20
2023-04-21T03:24:56.314Z,19.70
2023-04-21T03:28:03.883Z,19.30
2023-04-21T03:31:11.462Z,19.90
2023-04-21T03:34:20.269Z,19.90
2023-04-21T03:37:28.321Z,20.20
2023-04-21T03:40:35.426Z,19.60
2023-04-21T03:43:43.036Z,18.40
2023-04-21T03:46:52.207Z,20.20
2023-04-21T03:49:59.252Z,19.20
2023-04-21T03:53:07.071Z,20.10
2023-04-21T03:56:15.879Z,19.20
2023-04-21T03:59:23.337Z,19.30
2023-04-21T04:02:31.455Z,20.20
2023-04-21T04:05:40.622Z,19.80
2023-04-21T04:08:48.119Z,19.70
2023-04-21T04:11:55.151Z,21.30
2023-04-21T04:15:04.458Z,21.50
2023-04-21T04:18:11.808Z,21.00
2023-04-21T04:21:19.469Z,22.60
2023-04-21T04:24:27.339Z,20.70
2023-04-21T04:27:35.940Z,20.70
2023-04-21T04:30:43.756Z,20.50
2023-04-21T04:33:54.693Z,19.30
2023-04-21T04:36:53.068Z,19.50
2023-04-21T04:40:00.841Z,20.10
2023-04-21T04:43:08.542Z,20.10
2023-04-21T04:46:17.115Z,20.10
2023-04-21T04:49:24.899Z,20.80
2023-04-21T04:52:32.597Z,20.50
2023-04-21T04:55:41.057Z,20.50
2023-04-21T04:58:48.784Z,21.40
2023-04-21T05:01:56.486Z,21.50
2023-04-21T05:05:03.469Z,20.70
2023-04-21T05:08:13.258Z,22.10
2023-04-21T05:11:21.608Z,21.60
2023-04-21T05:14:29.170Z,21.90
2023-04-21T05:17:38.545Z,20.70
2023-04-21T05:20:46.059Z,21.00
2023-04-21T05:23:53.640Z,21.40
2023-04-21T05:27:02.580Z,21.00
2023-04-21T05:30:10.492Z,21.10
2023-04-21T05:33:18.217Z,20.70
2023-04-21T05:36:26.911Z,19.40
2023-04-21T05:39:35.088Z,16.90
2023-04-21T05:42:42.874Z,16.80
2023-04-21T05:45:50.347Z,17.00
2023-04-21T05:48:59.619Z,15.10
2023-04-21T05:52:06.797Z,13.40
2023-04-21T05:55:14.677Z,13.70
2023-04-21T05:58:23.715Z,11.80
2023-04-21T06:01:25.894Z,10.20
2023-04-21T06:04:35.315Z,9.90
2023-04-21T06:07:44.555Z,9.50
2023-04-21T06:10:52.551Z,8.60
2023-04-21T06:14:00.140Z,9.20
2023-04-21T06:17:09.303Z,8.50
2023-04-21T06:20:17.556Z,7.70
2023-04-21T06:23:24.899Z,7.80
2023-04-21T06:26:34.192Z,8.30
2023-04-21T06:29:42.288Z,8.70
2023-04-21T06:32:49.646Z,7.30
2023-04-21T06:35:57.676Z,8.20
2023-04-21T06:39:06.780Z,7.60
2023-04-21T06:42:14.341Z,7.80
2023-04-21T06:45:22.409Z,7.90
2023-04-21T06:48:31.536Z,7.70
2023-04-21T06:51:39.213Z,7.90
2023-04-21T06:54:47.166Z,6.90
2023-04-21T06:57:56.315Z,7.90
2023-04-21T07:01:04.275Z,7.10
2023-04-21T07:04:12.404Z,7.50
2023-04-21T07:07:21.215Z,7.80
2023-04-21T07:10:28.542Z,6.80
2023-04-21T07:13:36.204Z,6.90
2023-04-21T07:16:44.719Z,6.50
2023-04-21T07:19:53.771Z,6.80
2023-04-21T07:23:01.432Z,6.80
2023-04-21T07:26:09.524Z,6.60
2023-04-21T07:29:18.790Z,6.10
2023-04-21T07:32:26.488Z,5.70
2023-04-21T07:35:34.702Z,5.40
2023-04-21T07:38:43.091Z,5.70
2023-04-21T07:41:51.067Z,5.80
2023-04-21T07:44:59.001Z,6.40
2023-04-21T07:48:07.817Z,5.50
2023-04-21T07:51:15.666Z,6.60
2023-04-21T07:54:23.117Z,6.90
2023-04-21T07:57:30.456Z,5.40
2023-04-21T08:00:39.325Z,5.70
2023-04-21T08:03:46.932Z,5.50
2023-04-21T08:06:55.328Z,5.60
2023-04-21T08:10:04.383Z,5.70
2023-04-21T08:13:12.349Z,5.00
2023-04-21T08:16:20.733Z,5.10
2023-04-21T08:19:29.755Z,6.00
2023-04-21T08:22:37.282Z,5.40
2023-04-21T08:25:45.160Z,6.20
2023-04-21T08:28:53.998Z,5.90
2023-04-21T08:32:02.210Z,5.40
2023-04-21T08:35:10.506Z,5.10
2023-04-21T08:38:17.847Z,5.50
2023-04-21T08:41:27.409Z,5.90
2023-04-21T08:44:35.595Z,5.60
2023-04-21T08:47:43.261Z,5.50
2023-04-21T08:50:52.840Z,5.10
2023-04-21T08:54:00.261Z,5.20
2023-04-21T08:57:15.457Z,5.10
2023-04-21T09:00:13.815Z,5.30
2023-04-21T09:03:26.050Z,5.00
2023-04-21T09:06:23.593Z,5.20
2023-04-21T09:09:32.470Z,5.10
2023-04-21T09:12:40.443Z,5.00
2023-04-21T09:15:47.807Z,4.50
2023-04-21T09:18:54.925Z,4.90
2023-04-21T09:22:04.210Z,4.90
2023-04-21T09:25:11.531Z,4.60
2023-04-21T09:28:19.322Z,4.90
2023-04-21T09:31:28.507Z,4.50
2023-04-21T09:34:36.121Z,4.60
2023-04-21T09:37:43.876Z,4.90
2023-04-21T09:40:53.017Z,4.90
2023-04-21T09:44:00.604Z,4.80
2023-04-21T09:47:08.092Z,4.90
2023-04-21T09:50:20.558Z,4.70
2023-04-21T09:53:21.954Z,4.20
2023-04-21T09:56:29.498Z,4.30
2023-04-21T09:59:38.581Z,4.60
2023-04-21T10:02:46.629Z,4.30
2023-04-21T10:05:54.083Z,4.90
2023-04-21T10:09:02.113Z,4.60
2023-04-21T10:12:11.314Z,3.90
2023-04-21T10:15:18.493Z,4.50
2023-04-21T10:18:26.404Z,4.00
2023-04-21T10:21:35.201Z,4.70
2023-04-21T10:24:42.767Z,4.70
2023-04-21T10:27:50.416Z,4.30
2023-04-21T10:30:59.484Z,4.50
2023-04-21T10:34:07.424Z,4.40
2023-04-21T10:37:15.372Z,4.20
2023-04-21T10:40:36.431Z,4.60
2023-04-21T10:43:29.330Z,4.00
2023-04-21T10:46:37.031Z,4.20
2023-04-21T10:49:45.044Z,4.60
2023-04-21T10:52:53.970Z,4.70
2023-04-21T10:56:01.187Z,4.80
2023-04-21T10:59:08.787Z,4.00
2023-04-21T11:02:18.243Z,3.90
2023-04-21T11:05:25.537Z,4.10
2023-04-21T11:08:33.397Z,4.00
2023-04-21T11:11:42.396Z,4.80
2023-04-21T11:14:49.891Z,4.60
2023-04-21T11:17:57.644Z,4.00
2023-04-21T11:21:06.587Z,4.10
2023-04-21T11:24:14.081Z,3.70
2023-04-21T11:27:21.806Z,3.80
2023-04-21T11:30:28.950Z,4.60
2023-04-21T11:33:38.061Z,4.40
2023-04-21T11:36:45.376Z,4.20
2023-04-21T11:39:53.159Z,4.20
2023-04-21T11:43:02.109Z,3.90
2023-04-21T11:46:09.671Z,3.90
2023-04-21T11:49:17.709Z,3.60
2023-04-21T11:52:26.366Z,3.80
2023-04-21T11:55:34.108Z,3.70
2023-04-21T11:58:42.040Z,4.00
2023-04-21T12:01:50.862Z,3.60
2023-04-21T12:04:59.536Z,3.50
2023-04-21T12:08:07.244Z,3.40
2023-04-21T12:11:15.610Z,3.80
2023-04-21T12:14:23.447Z,3.40
2023-04-21T12:17:31.036Z,3.60
2023-04-21T12:20:38.041Z,3.70
2023-04-21T12:23:47.294Z,3.90
2023-04-21T12:26:54.806Z,3.80
2023-04-21T12:30:02.391Z,3.00
2023-04-21T12:33:11.586Z,3.70
2023-04-21T12:36:18.849Z,3.90
2023-04-21T12:39:26.452Z,4.10
2023-04-21T12:42:37.860Z,3.30
2023-04-21T12:45:45.963Z,3.70
2023-04-21T12:48:53.500Z,3.30
2023-04-21T12:52:02.628Z,3.20
2023-04-21T12:55:10.046Z,3.10
2023-04-21T12:58:17.424Z,2.70
2023-04-21T13:01:25.101Z,3.00
2023-04-21T13:04:34.374Z,2.70
2023-04-21T13:07:41.753Z,3.60
2023-04-21T13:10:49.352Z,2.70
2023-04-21T13:13:58.552Z,2.70
2023-04-21T13:17:06.010Z,3.00
2023-04-21T13:20:13.337Z,2.70
2023-04-21T13:23:22.435Z,2.70
2023-04-21T13:26:30.218Z,2.70
2023-04-21T13:29:37.924Z,2.60
2023-04-21T13:32:48.201Z,2.80
2023-04-21T13:35:55.465Z,2.90
2023-04-21T13:39:04.285Z,2.40
2023-04-21T13:42:10.150Z,3.50
2023-04-21T13:45:17.407Z,2.60
2023-04-21T13:48:25.087Z,2.30
2023-04-21T13:51:34.325Z,2.30
2023-04-21T13:54:41.453Z,2.50
2023-04-21T13:57:49.279Z,2.90
2023-04-21T14:00:57.359Z,2.70
2023-04-21T14:04:06.417Z,2.80
2023-04-21T14:07:14.948Z,2.20
2023-04-21T14:10:22.776Z,2.80
2023-04-21T14:13:37.867Z,2.90
2023-04-21T14:16:37.226Z,2.50
2023-04-21T14:19:45.161Z,2.40
2023-04-21T14:22:53.776Z,2.90
2023-04-21T14:26:01.826Z,2.80
2023-04-21T14:29:09.711Z,2.80
2023-04-21T14:32:19.122Z,2.60
2023-04-21T14:35:26.690Z,2.60
2023-04-21T14:38:34.577Z,3.50
2023-04-21T14:41:42.055Z,2.70
2023-04-21T14:44:50.909Z,3.00
2023-04-21T14:47:59.054Z,2.80
2023-04-21T14:51:06.575Z,3.10
2023-04-21T14:54:15.240Z,2.60
2023-04-21T14:57:23.107Z,3.20
2023-04-21T15:00:30.661Z,2.80
2023-04-21T15:03:39.735Z,2.80
2023-04-21T15:06:47.460Z,2.90
2023-04-21T15:09:54.843Z,3.00
2023-04-21T15:13:03.813Z,2.90
2023-04-21T15:16:11.402Z,2.70
2023-04-21T15:19:18.619Z,3.00
2023-04-21T15:22:27.965Z,2.50
2023-04-21T15:25:35.627Z,2.70
2023-04-21T15:28:43.002Z,2.70
2023-04-21T15:31:50.533Z,3.10
2023-04-21T15:35:00.163Z,3.10
2023-04-21T15:38:07.519Z,3.00
2023-04-21T15:41:15.610Z,3.00
2023-04-21T15:44:24.864Z,2.80
2023-04-21T15:47:33.464Z,3.20
2023-04-21T15:50:42.042Z,2.90
2023-04-21T15:53:50.908Z,2.70
2023-04-21T15:56:58.549Z,2.90
2023-04-21T16:00:06.829Z,3.00
2023-04-21T16:03:16.646Z,3.30
2023-04-21T16:06:24.401Z,3.00
2023-04-21T16:09:32.377Z,3.30
2023-04-21T16:12:40.320Z,3.10
2023-04-21T16:15:49.181Z,3.20
2023-04-21T16:18:56.214Z,3.10
2023-04-21T16:22:04.242Z,2.90
2023-04-21T16:25:13.696Z,3.20
2023-04-21T16:28:20.845Z,2.30
2023-04-21T16:31:28.664Z,2.70
2023-04-21T16:34:38.116Z,2.40
2023-04-21T16:37:45.875Z,2.70
2023-04-21T16:40:53.528Z,3.20
2023-04-21T16:44:02.618Z,3.20
2023-04-21T16:47:10.649Z,2.90
2023-04-21T16:50:18.225Z,2.50
2023-04-21T16:53:26.357Z,3.30
2023-04-21T16:56:35.372Z,3.80
2023-04-21T16:59:43.162Z,3.30
2023-04-21T17:02:50.945Z,3.30
2023-04-21T17:05:59.775Z,3.60
2023-04-21T17:09:07.135Z,3.40
2023-04-21T17:12:14.549Z,3.40
2023-04-21T17:15:23.410Z,4.00
2023-04-21T17:18:30.772Z,3.40
2023-04-21T17:21:38.860Z,3.20
2023-04-21T17:27:57.693Z,3.70
2023-04-21T17:31:14.964Z,3.40
2023-04-21T17:34:12.267Z,3.60
2023-04-21T17:37:19.270Z,3.10
2023-04-21T17:40:27.238Z,3.60
2023-04-21T17:43:35.087Z,3.30
2023-04-21T17:46:44.118Z,3.60
2023-04-21T17:49:52.215Z,3.60
2023-04-21T17:52:59.660Z,3.50
2023-04-21T17:56:08.611Z,3.50
2023-04-21T17:59:16.452Z,4.00
2023-04-21T18:02:23.943Z,3.50
2023-04-21T18:05:32.739Z,3.90
2023-04-21T18:08:40.588Z,4.20
2023-04-21T18:11:48.125Z,3.60
2023-04-21T18:14:57.348Z,4.00
2023-04-21T18:18:04.886Z,4.10
2023-04-21T18:21:12.799Z,3.90
2023-04-21T18:24:20.262Z,4.00
2023-04-21T18:27:29.205Z,4.00
2023-04-21T18:30:37.008Z,4.10
2023-04-21T18:33:44.300Z,4.30
2023-04-21T18:36:53.223Z,3.80
2023-04-21T18:40:00.920Z,4.00
2023-04-21T18:43:08.054Z,5.20
2023-04-21T18:46:17.280Z,4.40
2023-04-21T18:49:24.941Z,3.80
2023-04-21T18:52:31.990Z,4.20
2023-04-21T18:55:41.083Z,4.40
2023-04-21T18:58:48.854Z,4.70
2023-04-21T19:01:55.995Z,4.40
2023-04-21T19:05:03.770Z,4.40
2023-04-21T19:08:12.822Z,4.30
2023-04-21T19:11:19.861Z,4.40
2023-04-21T19:14:27.737Z,4.50
2023-04-21T19:17:36.581Z,4.80
2023-04-21T19:20:43.958Z,4.60
2023-04-21T19:23:51.992Z,5.00
2023-04-21T19:27:00.727Z,4.70
2023-04-21T19:30:08.217Z,4.70
2023-04-21T19:33:16.247Z,4.80
2023-04-21T19:36:25.182Z,4.50
2023-04-21T19:39:32.644Z,4.80
2023-04-21T19:42:41.938Z,4.60
2023-04-21T19:45:49.539Z,4.50
2023-04-21T19:48:58.447Z,4.80
2023-04-21T19:52:05.915Z,5.60
2023-04-21T19:55:13.835Z,4.50
2023-04-21T19:58:38.905Z,4.70
2023-04-21T20:01:26.835Z,5.30
2023-04-21T20:04:34.557Z,4.80
2023-04-21T20:07:43.657Z,5.20
2023-04-21T20:10:51.035Z,4.60
2023-04-21T20:13:58.872Z,5.40
2023-04-21T20:17:07.482Z,5.20
2023-04-21T20:20:15.198Z,5.10
2023-04-21T20:23:22.871Z,5.10
2023-04-21T20:26:31.460Z,4.60
2023-04-21T20:29:39.583Z,4.80
2023-04-21T20:32:47.755Z,4.80
2023-04-21T20:35:54.750Z,5.00
2023-04-21T20:39:03.585Z,4.50
2023-04-21T20:42:13.437Z,4.70
2023-04-21T20:45:20.946Z,5.20
2023-04-21T20:48:30.217Z,5.30
2023-04-21T20:51:37.667Z,5.00
2023-04-21T20:54:45.083Z,5.60
2023-04-21T20:57:54.299Z,5.10
2023-04-21T21:01:01.720Z,5.30
2023-04-21T21:04:09.136Z,5.00
2023-04-21T21:07:18.594Z,4.80
2023-04-21T21:10:25.733Z,5.20
2023-04-21T21:13:33.180Z,5.20
2023-04-21T21:16:40.793Z,5.40
2023-04-21T21:19:50.039Z,5.30
2023-04-21T21:22:57.472Z,5.40
2023-04-21T21:26:04.619Z,5.70
2023-04-21T21:29:13.892Z,5.40
2023-04-21T21:32:21.752Z,5.30
2023-04-21T21:35:28.885Z,5.30
2023-04-21T21:38:38.182Z,6.00
2023-04-21T21:41:46.044Z,6.00
2023-04-21T21:44:53.385Z,5.90
2023-04-21T21:48:02.284Z,6.10
2023-04-21T21:51:09.347Z,6.70
2023-04-21T21:54:16.836Z,6.40
2023-04-21T21:57:25.493Z,6.60
2023-04-21T22:00:35.661Z,6.50
2023-04-21T22:03:44.586Z,6.70
2023-04-21T22:06:52.658Z,6.70
2023-04-21T22:10:01.757Z,6.90
2023-04-21T22:13:09.414Z,7.60
2023-04-21T22:16:17.362Z,7.80
2023-04-21T22:19:26.358Z,6.80
2023-04-21T22:22:34.009Z,6.80
2023-04-21T22:25:41.262Z,6.80
2023-04-21T22:28:50.413Z,7.30
2023-04-21T22:31:57.897Z,7.20
2023-04-21T22:35:05.348Z,7.60
2023-04-21T22:38:13.259Z,7.20
2023-04-21T22:41:22.268Z,7.70
2023-04-21T22:44:29.524Z,6.70
2023-04-21T22:47:37.499Z,7.00
2023-04-21T22:50:46.553Z,7.10
2023-04-21T22:53:53.753Z,7.70
2023-04-21T22:57:01.791Z,7.50
2023-04-21T23:00:10.639Z,7.60
2023-04-21T23:03:18.186Z,7.40
2023-04-21T23:06:26.110Z,7.80
2023-04-21T23:09:34.849Z,7.50
2023-04-21T23:12:42.225Z,7.80
2023-04-21T23:15:49.992Z,7.40
2023-04-21T23:18:59.107Z,8.70
2023-04-21T23:22:06.739Z,7.80
2023-04-21T23:25:14.559Z,8.10
2023-04-21T23:28:22.051Z,7.10
2023-04-21T23:31:30.852Z,7.70
2023-04-21T23:34:37.902Z,7.00
2023-04-21T23:37:45.871Z,7.50
2023-04-21T23:40:55.115Z,8.20
2023-04-21T23:44:02.244Z,8.40
2023-04-21T23:47:09.740Z,8.00
2023-04-21T23:50:18.790Z,8.40
2023-04-21T23:53:25.940Z,7.50
2023-04-21T23:56:33.824Z,7.60
2023-04-21T23:59:42.305Z,7.90
